Grand Falls, Missouri
Current Conditions -  °F | °C
As of 6:53 AM on Friday 24 Oct 2014 (Local Time) from KJLN Reporting Station
Clear Clear  
Wind Chill: 52°   Ceiling: Unl
Heat Index: 52°   Visibility: 8mi
Dew Point: 50°   Wind: 8mph
Humidity: 93%   Direction: 180°S
Pressure: 30.1"   Gusts: NA
Location:  37.1074°N, 94.5218°W
Report Text: KJLN 241153Z 18007KT 8SM CLR 11/10 A3010 RMK AO2 SLP191 70001 T01110100 10111 20100 58005
Loading
Personal Weather Stations






























Interactive Weather Map
Tropical Storm Tracking
New forecast layout! Learn more

10-Day Weather Forecast

Advertisements
Track Severe Weather on mobile